Aihui, Heilongjiang

9:46 PM CST on August 22, 2014 (GMT +0800)
Ignatyevo | Change Station
CLOSE
Current Station
Airport
Location: Blagovescensk,
Elevation: 636 ft
Nearby Weather Stations

Elev 636 ft 50.43 °N, 127.41 °E | Updated 46 minutes ago

Clear
Clear
66 °F
Feels Like 66 °F
N
0
Wind Variable Wind from North

Today
High -- | Low -- °F
--% Chance of Precip.
Yesterday
High -- | Low -- °F
Precip. -- in
4:28 AM 6:36 PM
Waning Crescent, 8% visible
Pressure 29.77 in
Visibility -9999.0 miles
Clouds
Dew Point 61 °F
Humidity 83%
Rainfall 0.00 in
Snow Depth Not available.
UV Not available.
Pollen Not available.
Air Quality Not available.
Flu Activity Not available.
METAR UHBB 221300Z 00000MPS CAVOK 19/16 Q1008 NOSIG RMK QFE739/0985 36090060

More Conditions Fewer Conditions

Pressure 29.77 in
Visibility -9999.0 miles
Clouds
Dew Point 61 °F
Humidity 83%
Rainfall 0.00 in
Snow Depth Not available.
UV Not available.
Pollen Not available.
Air Quality Not available.
Flu Activity Not available.
METAR UHBB 221300Z 00000MPS CAVOK 19/16 Q1008 NOSIG RMK QFE739/0985 36090060

More Conditions Fewer Conditions

10-Day Weather Forecast

Almanac

Astronomy

Aug. 22, 2014 Rise Set
Actual Time 4:28 AM CST 6:36 PM CST
Civil Twilight 3:53 AM CST 7:11 PM CST
Nautical Twilight 3:09 AM CST 7:55 PM CST
Astronomical Twilight 2:19 AM CST 8:44 PM CST
Moon 1:10 AM CST 4:28 PM CST
Length of Visible Light 15h 17m
Length of Day
14h 07m
Tomorrow will be 3m 31s shorter.
Waning Crescent, 8% of the Moon is Illuminated
Today
Waning Crescent
Aug 25
New
Sep 2
First Quarter
Sep 8
Full
Sep 15
Last Quarter

Yesterday's Extremes

Country Highs Country Lows

Community

WunderPhotos

Upload Photos

1,746,168 photos uploaded!

Nearby

Snow Depth

Not available.

Earthquake Activity

City Distance Mag. Time & Date
No recent earthquake activity has been reported nearby.
Minimum magnitude displayed is 2.5.

Coastal Water Temperatures

Place Temperature
No Stations Reporting

Nearby Weather Stations